Time;durP1;ratioP1;P1;durP2;ratioP2;P2;SDS_P1;SDS_P2;PMS_P1;PMS_P2;Temp;Humidity;BMP_temperature;BMP_pressure;BME280_temperature;BME280_humidity;BME280_pressure;Samples;Min_cycle;Max_cycle;Signal;HPM_P1;HPM_P2
2022/01/01 04:33:19;;;;;;;32.77;22.83;;;;;;;14.32;61.24;99837.13;6840171;23;20267;-80
2022/01/01 04:36:48;;;;;;;31.90;21.67;;;;;;;14.84;59.92;99832.66;6749691;29;20235;-83
2022/01/01 04:40:12;;;;;;;23.73;16.93;;;;;;;14.97;59.34;99823.66;6759341;29;20218;-82
2022/01/01 04:43:34;;;;;;;17.87;13.17;;;;;;;14.91;57.78;99791.91;6743850;29;20296;-82
2022/01/01 04:46:56;;;;;;;13.87;11.87;;;;;;;14.77;57.61;99803.81;6747415;29;20200;-81
2022/01/01 04:50:19;;;;;;;18.93;11.80;;;;;;;15.13;56.56;99809.66;6748340;29;20212;-82
2022/01/01 04:53:43;;;;;;;16.80;10.87;;;;;;;15.16;56.73;99807.38;6746863;29;20216;-81
2022/01/01 04:57:05;;;;;;;13.57;10.30;;;;;;;15.03;56.66;99807.38;6747909;29;20275;-82
2022/01/01 05:00:27;;;;;;;13.93;9.47;;;;;;;14.97;56.46;99783.78;6749301;29;20233;-81
2022/01/01 05:03:48;;;;;;;15.93;9.53;;;;;;;15.11;55.72;99752.00;6748702;29;20220;-82
2022/01/01 05:07:11;;;;;;;12.07;9.07;;;;;;;15.24;55.92;99790.03;6751065;29;20227;-82
2022/01/01 05:10:33;;;;;;;13.07;9.83;;;;;;;15.15;56.17;99788.59;6747381;29;20236;-82
2022/01/01 05:13:55;;;;;;;15.73;11.83;;;;;;;14.77;57.52;99801.09;6749259;29;20268;-82
2022/01/01 05:17:17;;;;;;;24.60;16.83;;;;;;;14.75;57.76;99786.91;6749527;29;20235;-80
2022/01/01 05:20:39;;;;;;;21.37;16.37;;;;;;;14.78;57.53;99772.91;6746641;29;20228;-80
2022/01/01 05:24:04;;;;;;;27.67;19.63;;;;;;;14.87;57.56;99796.94;6742318;29;20764;-80
2022/01/01 05:27:25;;;;;;;23.57;18.70;;;;;;;14.79;57.05;99780.00;6742943;29;20700;-79
2022/01/01 05:30:49;;;;;;;16.00;12.13;;;;;;;14.67;56.38;99770.81;6741761;29;20247;-83
2022/01/01 05:34:11;;;;;;;14.97;11.63;;;;;;;14.63;56.77;99808.38;6740407;29;20247;-82
2022/01/01 05:37:33;;;;;;;18.17;12.83;;;;;;;14.15;58.24;99801.34;6740536;29;20697;-80
2022/01/01 05:40:56;;;;;;;15.33;12.20;;;;;;;14.44;57.52;99805.63;6739830;29;20255;-81
2022/01/01 05:44:17;;;;;;;15.90;10.93;;;;;;;14.22;57.79;99818.53;6739524;29;20241;-80
2022/01/01 05:47:39;;;;;;;15.10;10.73;;;;;;;14.13;57.70;99789.03;6738962;29;20273;-81
2022/01/01 05:51:00;;;;;;;13.30;9.27;;;;;;;14.45;56.76;99818.19;6738993;29;20697;-82
2022/01/01 05:54:22;;;;;;;11.67;8.87;;;;;;;14.44;55.91;99820.06;6737832;29;20251;-82
2022/01/01 05:57:45;;;;;;;14.60;9.57;;;;;;;14.45;55.43;99801.91;6739659;29;20241;-80
2022/01/01 06:01:06;;;;;;;11.97;9.17;;;;;;;14.20;55.80;99807.03;6738785;29;20241;-81
2022/01/01 06:04:28;;;;;;;11.83;8.43;;;;;;;14.28;55.37;99804.13;6738033;29;20241;-81
2022/01/01 06:07:50;;;;;;;11.07;8.73;;;;;;;14.49;55.25;99827.56;6738830;29;20208;-80
2022/01/01 06:11:11;;;;;;;14.20;10.23;;;;;;;14.61;54.81;99831.34;6738884;29;20240;-81
2022/01/01 06:14:34;;;;;;;13.67;10.50;;;;;;;14.47;55.60;99846.78;6738951;29;20204;-80
2022/01/01 06:17:56;;;;;;;16.13;10.30;;;;;;;13.94;57.15;99847.59;6739070;29;20232;-80
2022/01/01 06:21:17;;;;;;;14.67;11.00;;;;;;;14.11;57.15;99845.38;6739618;29;20236;-81
2022/01/01 06:24:39;;;;;;;17.20;11.70;;;;;;;14.22;56.96;99832.09;6739177;29;20296;-81
2022/01/01 06:28:01;;;;;;;12.83;9.73;;;;;;;14.25;56.00;99817.28;6739656;29;20575;-80
2022/01/01 06:31:24;;;;;;;12.00;9.67;;;;;;;14.38;55.72;99858.84;6739093;29;20296;-80
2022/01/01 06:34:45;;;;;;;15.97;11.63;;;;;;;14.21;56.49;99864.84;6738530;29;20231;-83
2022/01/01 06:38:07;;;;;;;14.77;10.63;;;;;;;13.78;57.92;99879.59;6738290;29;20399;-81
2022/01/01 06:41:28;;;;;;;13.67;10.43;;;;;;;14.17;56.64;99868.97;6738172;29;20248;-81
2022/01/01 06:44:50;;;;;;;15.03;10.60;;;;;;;14.10;56.78;99882.50;6737188;29;20749;-82
2022/01/01 06:48:13;;;;;;;14.03;10.97;;;;;;;13.79;57.73;99883.97;6737352;29;20838;-81
2022/01/01 06:51:36;;;;;;;15.60;10.27;;;;;;;13.69;58.15;99889.75;6737477;29;20243;-81
2022/01/01 06:54:57;;;;;;;14.57;10.87;;;;;;;13.97;56.84;99843.63;6738628;29;20208;-81
2022/01/01 06:58:19;;;;;;;12.50;9.53;;;;;;;14.36;56.04;99876.38;6739296;29;20233;-81
2022/01/01 07:01:41;;;;;;;11.70;9.77;;;;;;;14.15;55.93;99873.78;6739501;29;20240;-82
2022/01/01 07:05:04;;;;;;;14.70;10.83;;;;;;;14.20;55.95;99871.28;6739829;29;20228;-81
2022/01/01 07:08:26;;;;;;;14.40;11.43;;;;;;;13.73;56.20;99819.72;6740826;29;20216;-80
2022/01/01 07:11:47;;;;;;;15.23;11.13;;;;;;;14.22;56.31;99872.78;6740877;29;20232;-80
2022/01/01 07:15:10;;;;;;;16.03;11.50;;;;;;;14.14;56.49;99875.63;6740396;29;20207;-83
2022/01/01 07:18:31;;;;;;;23.57;16.73;;;;;;;14.22;56.49;99874.66;6740373;29;20295;-79
2022/01/01 07:21:56;;;;;;;13.73;9.67;;;;;;;14.25;56.23;99847.97;6739919;29;20243;-82
2022/01/01 07:25:18;;;;;;;12.27;9.23;;;;;;;14.23;55.87;99873.63;6741620;29;20220;-81
2022/01/01 07:28:40;;;;;;;10.40;8.90;;;;;;;13.98;56.22;99856.16;6741191;29;20574;-83
2022/01/01 07:32:01;;;;;;;10.00;8.00;;;;;;;14.03;55.76;99859.94;6742379;29;20236;-82
2022/01/01 07:35:23;;;;;;;8.60;7.23;;;;;;;14.36;55.01;99871.81;6742584;29;20208;-81
2022/01/01 07:38:46;;;;;;;11.90;8.50;;;;;;;14.29;55.60;99867.38;6743214;29;20252;-82
2022/01/01 07:42:08;;;;;;;11.70;8.40;;;;;;;13.87;57.27;99867.56;6741900;29;20318;-81
2022/01/01 07:45:30;;;;;;;11.23;8.93;;;;;;;14.39;55.91;99871.38;6738771;29;20608;-81
2022/01/01 07:48:51;;;;;;;11.60;8.60;;;;;;;14.59;55.82;99871.44;6725686;29;20209;-82
2022/01/01 07:52:13;;;;;;;13.40;8.97;;;;;;;14.05;56.60;99844.28;6714730;29;20224;-80
2022/01/01 07:55:36;;;;;;;10.47;8.40;;;;;;;13.93;57.18;99840.47;6715904;29;20220;-81
2022/01/01 07:58:57;;;;;;;14.57;11.13;;;;;;;13.91;57.01;99831.72;6715646;29;20241;-82
2022/01/01 08:02:19;;;;;;;18.00;12.23;;;;;;;14.01;57.25;99837.63;6731434;29;20228;-83
2022/01/01 08:05:41;;;;;;;15.67;11.87;;;;;;;14.49;56.11;99841.13;6736891;29;20217;-83
2022/01/01 08:09:03;;;;;;;13.67;10.43;;;;;;;14.63;55.77;99854.53;6730299;29;20285;-82
2022/01/01 08:12:26;;;;;;;11.97;9.07;;;;;;;13.95;57.28;99867.41;6716525;29;20231;-81
2022/01/01 08:15:48;;;;;;;10.97;8.30;;;;;;;14.12;56.52;99863.31;6730647;29;20211;-82
2022/01/01 08:19:10;;;;;;;11.47;7.73;;;;;;;14.63;55.08;99873.53;6740554;29;20312;-81
2022/01/01 08:22:31;;;;;;;8.50;6.90;;;;;;;14.83;54.57;99849.16;6740490;29;20236;-81
2022/01/01 08:25:56;;;;;;;13.40;8.70;;;;;;;15.08;54.57;99859.19;6740477;29;20566;-81
2022/01/01 08:29:19;;;;;;;11.97;10.00;;;;;;;14.98;54.69;99852.53;6740749;29;20367;-81
2022/01/01 08:32:40;;;;;;;10.90;8.53;;;;;;;14.95;54.62;99837.47;6741687;29;20255;-82
2022/01/01 08:36:03;;;;;;;10.40;8.70;;;;;;;15.15;53.90;99808.41;6742142;29;20216;-83
2022/01/01 08:39:25;;;;;;;9.80;7.10;;;;;;;14.88;53.77;99838.50;6740575;29;20232;-82
2022/01/01 08:42:46;;;;;;;7.73;6.00;;;;;;;14.95;54.03;99855.63;6740280;29;20245;-79
2022/01/01 08:46:10;;;;;;;7.47;5.73;;;;;;;16.50;49.43;99843.63;6738150;29;20204;-81
2022/01/01 08:49:32;;;;;;;7.40;5.60;;;;;;;18.69;42.73;99831.84;6738864;29;20665;-80
2022/01/01 08:52:53;;;;;;;5.30;4.80;;;;;;;18.36;42.92;99853.31;6739051;29;20228;-81
2022/01/01 08:56:15;;;;;;;7.17;5.37;;;;;;;18.62;42.78;99866.59;6739176;29;20631;-80
2022/01/01 08:59:38;;;;;;;6.07;5.47;;;;;;;18.46;42.04;99854.41;6740200;29;20237;-82
2022/01/01 09:03:01;;;;;;;9.67;6.77;;;;;;;17.90;43.49;99869.34;6740571;29;20234;-81
2022/01/01 09:06:22;;;;;;;8.47;6.10;;;;;;;17.64;43.97;99877.81;6740887;29;20210;-81
2022/01/01 09:09:44;;;;;;;7.20;5.60;;;;;;;17.37;44.33;99879.91;6742486;29;20212;-81
2022/01/01 09:13:06;;;;;;;7.80;5.43;;;;;;;17.34;44.77;99874.06;6742897;29;20231;-81
2022/01/01 09:16:29;;;;;;;6.63;5.17;;;;;;;16.76;45.46;99888.94;6742455;29;20291;-81
2022/01/01 09:19:52;;;;;;;6.70;5.37;;;;;;;16.34;45.83;99873.22;6742322;29;20228;-81
2022/01/01 09:23:14;;;;;;;6.57;5.13;;;;;;;16.91;46.00;99857.63;6741995;29;20233;-81
2022/01/01 09:26:36;;;;;;;7.33;5.40;;;;;;;17.16;45.07;99883.00;6741608;29;20578;-82
2022/01/01 09:29:57;;;;;;;7.13;5.53;;;;;;;17.42;45.46;99888.31;6744197;29;20666;-81
2022/01/01 09:33:19;;;;;;;5.97;4.97;;;;;;;17.59;44.74;99886.69;6747337;29;20234;-82
2022/01/01 09:36:42;;;;;;;5.80;4.97;;;;;;;17.48;44.39;99821.97;6747086;29;20213;-81
2022/01/01 09:40:04;;;;;;;6.07;4.77;;;;;;;17.70;44.64;99872.28;6752658;29;20666;-81
2022/01/01 09:43:28;;;;;;;6.53;5.67;;;;;;;18.12;43.90;99895.16;6752325;29;20225;-81
2022/01/01 09:46:51;;;;;;;7.00;5.50;;;;;;;17.72;43.95;99889.28;6757074;29;20213;-83
2022/01/01 09:50:13;;;;;;;6.73;5.47;;;;;;;17.79;43.88;99898.22;6758337;29;20759;-83
2022/01/01 09:53:36;;;;;;;5.73;4.97;;;;;;;17.58;44.55;99892.34;6757233;29;20210;-81
2022/01/01 09:56:58;;;;;;;6.37;5.43;;;;;;;18.40;43.37;99909.16;6755431;29;20221;-82
2022/01/01 10:00:20;;;;;;;5.97;4.80;;;;;;;18.72;41.92;99891.50;6745888;29;20759;-82
2022/01/01 10:03:43;;;;;;;5.93;5.33;;;;;;;18.72;42.44;99908.72;6744393;29;20219;-81
2022/01/01 10:07:06;;;;;;;5.80;5.20;;;;;;;18.86;42.51;99898.47;6743935;29;20210;-81
2022/01/01 10:10:28;;;;;;;8.40;6.63;;;;;;;18.72;42.75;99881.41;6744421;29;20210;-83
2022/01/01 10:13:50;;;;;;;6.00;5.17;;;;;;;18.99;41.85;99885.41;6748193;29;20222;-82
2022/01/01 10:17:16;;;;;;;6.57;4.70;;;;;;;18.98;41.58;99841.94;6743286;29;20225;-82
2022/01/01 10:20:43;;;;;;;4.97;4.47;;;;;;;19.62;40.68;99863.78;6741737;29;20241;-82
2022/01/01 10:24:12;;;;;;;6.07;5.03;;;;;;;19.69;40.83;99867.25;6740728;29;20196;-82
2022/01/01 10:27:42;;;;;;;5.93;5.17;;;;;;;19.49;41.07;99870.34;6746882;29;20229;-81
2022/01/01 10:31:08;;;;;;;5.87;4.50;;;;;;;19.36;40.56;99807.66;6779719;23;20242;-78
2022/01/01 10:34:32;;;;;;;5.87;4.47;;;;;;;19.33;41.68;99857.34;6770200;29;20219;-79
2022/01/01 10:37:54;;;;;;;6.57;5.13;;;;;;;19.40;41.04;99810.75;6770005;29;20241;-78
2022/01/01 10:41:17;;;;;;;5.10;4.50;;;;;;;19.66;39.98;99843.09;6788676;29;20219;-79
2022/01/01 10:44:41;;;;;;;6.87;6.10;;;;;;;19.21;40.66;99837.34;6778632;29;20200;-80
2022/01/01 10:48:27;;;;;;;5.20;4.37;;;;;;;18.59;41.08;99799.63;6783685;29;20203;-80
2022/01/01 10:51:48;;;;;;;5.17;4.23;;;;;;;18.79;41.69;99852.06;6779461;29;20571;-78
2022/01/01 10:55:12;;;;;;;6.17;4.40;;;;;;;19.35;41.76;99808.72;6784244;29;20653;-78
2022/01/01 10:58:35;;;;;;;4.30;3.67;;;;;;;19.19;40.74;99830.44;6796497;29;20611;-79
2022/01/01 11:01:58;;;;;;;6.43;4.53;;;;;;;19.90;40.01;99815.47;6797096;29;20213;-78
2022/01/01 11:05:43;;;;;;;12.37;9.70;;;;;;;20.18;39.77;99787.34;6796924;29;20215;-83
2022/01/01 11:09:11;;;;;;;15.03;12.47;;;;;;;20.69;40.00;99828.38;6796583;29;20223;-82
2022/01/01 11:12:33;;;;;;;5.43;4.30;;;;;;;20.70;39.39;99819.06;6812440;23;20237;-83
2022/01/01 11:15:55;;;;;;;5.00;3.87;;;;;;;20.12;39.60;99799.28;6795614;29;20206;-82
2022/01/01 11:19:19;;;;;;;6.40;4.60;;;;;;;20.21;40.48;99812.34;6796345;29;20227;-83
2022/01/01 11:22:40;;;;;;;4.67;4.13;;;;;;;20.07;40.05;99797.28;6796371;29;20598;-82
2022/01/01 11:26:02;;;;;;;5.10;4.60;;;;;;;19.83;40.88;99790.16;6796308;29;20207;-82
2022/01/01 11:29:24;;;;;;;6.83;4.57;;;;;;;19.83;40.33;99772.88;6796244;29;20203;-83
2022/01/01 11:32:51;;;;;;;6.00;4.30;;;;;;;19.78;41.27;99790.03;6797087;29;20258;-83
2022/01/01 11:36:21;;;;;;;5.10;4.30;;;;;;;19.46;42.38;99783.25;6798259;29;20641;-82
2022/01/01 11:39:42;;;;;;;5.20;4.60;;;;;;;19.94;41.03;99772.03;6798778;29;20223;-85
2022/01/01 11:43:04;;;;;;;9.10;4.90;;;;;;;19.91;41.30;99780.72;6794965;29;20227;-83
2022/01/01 11:46:29;;;;;;;4.43;4.03;;;;;;;19.56;41.32;99764.34;6793852;29;20214;-84
2022/01/01 11:49:53;;;;;;;4.67;4.07;;;;;;;19.77;41.44;99769.22;6796180;29;20207;-84
2022/01/01 11:53:29;;;;;;;5.83;4.57;;;;;;;19.81;41.73;99762.16;6795356;29;20274;-84
2022/01/01 11:57:26;;;;;;;6.20;4.53;;;;;;;20.33;40.50;99761.09;6795276;29;20195;-82
2022/01/01 12:00:57;;;;;;;4.73;3.70;;;;;;;20.31;39.92;99751.44;6794189;29;20242;-83
2022/01/01 12:04:23;;;;;;;4.80;4.30;;;;;;;20.36;40.39;99752.41;6794161;29;20191;-82
2022/01/01 12:07:51;;;;;;;4.40;4.00;;;;;;;20.59;39.96;99755.03;6795111;29;20214;-82
2022/01/01 12:11:28;;;;;;;4.53;4.13;;;;;;;19.96;41.24;99747.97;6794216;29;20219;-83
2022/01/01 12:14:52;;;;;;;4.30;3.90;;;;;;;20.41;39.82;99741.50;6777413;29;20593;-82
2022/01/01 12:18:15;;;;;;;4.80;4.30;;;;;;;19.84;40.04;99725.28;6794447;29;20230;-82
2022/01/01 12:21:39;;;;;;;6.93;3.90;;;;;;;19.94;40.49;99745.47;6795891;29;20223;-82
2022/01/01 12:25:03;;;;;;;4.60;4.13;;;;;;;20.72;39.47;99753.84;6796103;29;20218;-83
2022/01/01 12:28:28;;;;;;;4.63;4.10;;;;;;;20.83;39.35;99744.75;6795860;29;20230;-82
2022/01/01 12:31:56;;;;;;;4.90;4.20;;;;;;;20.45;40.17;99737.22;6797006;29;20232;-82
2022/01/01 12:35:18;;;;;;;6.20;4.37;;;;;;;20.95;39.48;99729.91;6796748;29;20202;-83
2022/01/01 12:38:40;;;;;;;4.13;3.60;;;;;;;20.62;40.17;99734.47;6796586;29;20226;-84
2022/01/01 12:42:26;;;;;;;5.73;4.57;;;;;;;20.67;39.88;99721.72;6797448;29;20238;-83
2022/01/01 12:45:51;;;;;;;4.30;3.90;;;;;;;20.52;39.36;99685.00;6797324;29;20203;-83
2022/01/01 12:49:13;;;;;;;4.60;3.50;;;;;;;20.37;40.34;99720.34;6796408;29;20219;-84
2022/01/01 12:52:34;;;;;;;4.10;3.70;;;;;;;20.24;40.76;99710.53;6792245;29;20260;-85
2022/01/01 12:56:04;;;;;;;4.20;3.60;;;;;;;20.36;39.88;99705.81;6772077;29;20204;-83
2022/01/01 12:59:26;;;;;;;4.23;3.53;;;;;;;20.21;40.28;99711.00;6774639;29;20231;-85
2022/01/01 13:02:49;;;;;;;3.30;3.00;;;;;;;19.91;40.69;99704.06;6775489;29;20264;-83
2022/01/01 13:06:11;;;;;;;4.17;3.27;;;;;;;20.12;40.70;99709.75;6783907;29;20204;-85
2022/01/01 13:09:32;;;;;;;5.47;3.80;;;;;;;20.25;40.46;99695.75;6786870;29;20215;-86
2022/01/01 13:12:54;;;;;;;4.73;3.67;;;;;;;20.22;40.53;99685.28;6785727;29;20251;-84
2022/01/01 13:16:18;;;;;;;4.20;3.80;;;;;;;20.29;40.48;99687.88;6784239;29;20203;-85
2022/01/01 13:19:41;;;;;;;3.77;3.47;;;;;;;20.55;39.82;99699.03;6797839;29;20208;-84
2022/01/01 13:23:06;;;;;;;3.80;3.40;;;;;;;20.64;39.72;99678.34;6802625;29;20234;-85
2022/01/01 13:26:27;;;;;;;4.73;3.60;;;;;;;20.69;39.69;99686.66;6796624;29;20212;-85
2022/01/01 13:29:49;;;;;;;3.90;3.33;;;;;;;20.39;39.90;99658.75;6797568;29;20219;-86
2022/01/01 13:33:11;;;;;;;4.33;3.27;;;;;;;20.44;40.03;99674.44;6788749;29;20244;-84
2022/01/01 13:36:35;;;;;;;3.50;2.73;;;;;;;20.20;40.49;99656.47;6788776;29;20216;-83
2022/01/01 13:39:57;;;;;;;3.83;3.20;;;;;;;20.12;41.46;99676.88;6786636;29;20227;-84
2022/01/01 13:43:20;;;;;;;4.80;3.40;;;;;;;20.19;40.94;99674.81;6776736;29;20318;-84
2022/01/01 13:46:42;;;;;;;3.97;3.00;;;;;;;20.17;40.53;99638.63;6773856;29;20219;-83
2022/01/01 13:50:12;;;;;;;4.53;3.63;;;;;;;20.17;40.49;99660.53;6774592;29;20251;-82
2022/01/01 13:53:35;;;;;;;4.80;3.53;;;;;;;19.79;41.42;99662.22;6772207;29;20566;-84
2022/01/01 13:56:59;;;;;;;5.20;3.40;;;;;;;19.81;41.68;99646.41;6774688;29;20229;-84
2022/01/01 14:00:23;;;;;;;5.53;4.23;;;;;;;19.88;41.65;99641.59;6781566;29;20242;-85
2022/01/01 14:03:45;;;;;;;5.23;3.73;;;;;;;19.74;42.17;99654.75;6777976;29;20214;-84
2022/01/01 14:07:11;;;;;;;4.80;3.93;;;;;;;19.74;42.48;99638.31;6774142;29;20204;-84
2022/01/01 14:10:34;;;;;;;6.87;4.87;;;;;;;19.85;42.48;99648.41;6773185;29;20227;-85
2022/01/01 14:14:07;;;;;;;4.10;3.70;;;;;;;19.52;42.87;99653.72;6770927;29;20223;-83
2022/01/01 14:17:29;;;;;;;5.80;4.20;;;;;;;19.45;43.01;99642.09;6770020;29;20219;-85
2022/01/01 14:20:53;;;;;;;4.60;3.50;;;;;;;19.21;43.25;99631.47;6770358;29;20246;-84
2022/01/01 14:24:15;;;;;;;6.20;3.63;;;;;;;19.38;43.24;99627.72;6770149;29;20212;-85
2022/01/01 14:27:38;;;;;;;5.60;3.90;;;;;;;18.90;44.31;99650.94;6771613;29;20219;-84
2022/01/01 14:31:01;;;;;;;4.67;3.97;;;;;;;18.90;44.63;99654.50;6770841;29;20239;-86
2022/01/01 14:34:22;;;;;;;7.80;4.20;;;;;;;19.01;44.49;99644.63;6771429;29;20237;-83
2022/01/01 14:37:44;;;;;;;5.50;4.37;;;;;;;19.01;44.44;99631.81;6771599;29;20219;-84
2022/01/01 14:41:07;;;;;;;5.90;4.60;;;;;;;18.90;44.94;99627.19;6772160;29;20239;-84
2022/01/01 14:44:30;;;;;;;5.50;4.43;;;;;;;18.54;45.64;99640.22;6768745;29;20220;-83
2022/01/01 14:48:02;;;;;;;5.17;4.60;;;;;;;18.23;46.85;99643.25;6770602;29;20679;-85
2022/01/01 14:51:27;;;;;;;4.83;4.37;;;;;;;18.03;47.61;99648.16;6770879;29;20749;-84
2022/01/01 14:55:02;;;;;;;5.10;4.10;;;;;;;17.98;47.11;99637.13;6770744;29;20277;-85
2022/01/01 14:58:29;;;;;;;5.17;4.67;;;;;;;17.76;48.51;99665.97;6770803;29;20248;-83
2022/01/01 15:01:52;;;;;;;6.73;4.87;;;;;;;17.59;47.90;99651.28;6770141;29;20229;-84
2022/01/01 15:05:14;;;;;;;5.27;4.77;;;;;;;17.10;49.66;99652.25;6770078;29;20224;-84
2022/01/01 15:08:36;;;;;;;10.20;5.27;;;;;;;17.17;49.83;99661.19;6771091;29;20217;-84
2022/01/01 15:11:58;;;;;;;5.90;5.20;;;;;;;16.85;51.11;99656.09;6770658;29;20732;-84
2022/01/01 15:15:20;;;;;;;6.53;5.03;;;;;;;16.68;51.20;99642.22;6769373;29;20216;-85
2022/01/01 15:18:43;;;;;;;6.93;5.20;;;;;;;16.56;51.81;99644.00;6770126;29;20228;-83
2022/01/01 15:22:16;;;;;;;7.73;5.77;;;;;;;16.14;53.15;99644.75;6769463;29;20224;-84
2022/01/01 15:25:39;;;;;;;10.33;6.70;;;;;;;15.16;55.67;99625.34;6770789;29;20204;-84
2022/01/01 15:29:10;;;;;;;8.77;6.53;;;;;;;15.34;55.90;99632.84;6769936;29;20212;-84
2022/01/01 15:36:17;;;;;;;7.87;6.17;;;;;;;15.08;56.67;99638.34;6769965;29;20197;-84
2022/01/01 15:39:42;;;;;;;8.40;6.40;;;;;;;14.82;56.87;99636.50;6770684;29;20239;-84
2022/01/01 15:43:03;;;;;;;11.73;6.77;;;;;;;15.09;56.33;99613.69;6769628;29;20243;-84
2022/01/01 15:46:26;;;;;;;11.50;7.23;;;;;;;14.91;56.70;99634.41;6770125;29;20571;-84
2022/01/01 15:49:48;;;;;;;8.90;6.97;;;;;;;15.17;56.24;99618.06;6770618;29;20293;-84
2022/01/01 15:53:12;;;;;;;10.90;7.17;;;;;;;15.07;55.92;99610.34;6770664;29;20655;-85
2022/01/01 15:56:38;;;;;;;9.53;7.67;;;;;;;14.71;56.96;99610.03;6771086;29;20200;-84
2022/01/01 16:00:03;;;;;;;12.30;8.20;;;;;;;14.64;56.76;99621.94;6771464;29;20233;-84
2022/01/01 16:03:35;;;;;;;9.00;7.07;;;;;;;14.48;57.21;99619.66;6770648;29;20239;-84
2022/01/01 16:07:03;;;;;;;9.10;6.10;;;;;;;14.50;57.40;99634.69;6767402;29;20259;-83
2022/01/01 16:10:27;;;;;;;7.73;6.90;;;;;;;14.54;56.92;99606.09;6766456;29;20220;-83
2022/01/01 16:13:48;;;;;;;9.33;6.83;;;;;;;14.51;56.55;99625.50;6789477;29;20207;-83
2022/01/01 16:17:14;;;;;;;15.37;10.17;;;;;;;14.01;58.16;99622.56;6785857;29;20199;-83
2022/01/01 16:20:36;;;;;;;12.07;9.13;;;;;;;14.10;58.42;99624.84;6771943;29;20251;-83
2022/01/01 16:23:58;;;;;;;10.97;8.37;;;;;;;14.26;57.32;99629.06;6781946;29;20664;-83
2022/01/01 16:27:22;;;;;;;11.20;7.83;;;;;;;14.45;56.44;99628.25;6800301;29;20207;-83
2022/01/01 16:30:45;;;;;;;10.43;7.67;;;;;;;14.17;56.45;99614.03;6803595;29;20242;-83
2022/01/01 16:34:06;;;;;;;10.70;6.87;;;;;;;13.85;57.48;99628.34;6795954;23;20292;-80
2022/01/01 16:37:30;;;;;;;9.83;6.77;;;;;;;13.99;57.61;99640.91;6791716;29;20215;-81
2022/01/01 16:40:56;;;;;;;10.70;6.93;;;;;;;14.23;56.09;99633.03;6816027;29;20629;-81
2022/01/01 16:44:26;;;;;;;9.80;7.20;;;;;;;13.79;56.52;99572.25;6765920;29;20224;-80
2022/01/01 16:47:51;;;;;;;10.67;7.43;;;;;;;13.99;56.35;99616.50;6755609;29;20230;-80
2022/01/01 16:51:14;;;;;;;10.23;7.80;;;;;;;13.93;55.80;99598.38;6769126;29;20211;-82
2022/01/01 16:54:36;;;;;;;9.20;7.10;;;;;;;13.63;56.60;99640.44;6769717;29;20235;-81
2022/01/01 16:58:03;;;;;;;11.43;7.50;;;;;;;13.74;56.73;99632.53;6771360;29;20211;-81
2022/01/01 17:01:27;;;;;;;11.80;7.70;;;;;;;13.45;57.35;99624.72;6770879;29;20958;-80
2022/01/01 17:04:54;;;;;;;11.10;8.07;;;;;;;13.66;56.33;99623.75;6769862;29;20232;-81
2022/01/01 17:08:16;;;;;;;12.27;6.67;;;;;;;12.72;59.02;99623.72;6769431;29;20195;-81
2022/01/01 17:11:38;;;;;;;10.90;7.40;;;;;;;12.78;59.41;99625.63;6769541;29;20216;-81
2022/01/01 17:15:01;;;;;;;12.37;7.93;;;;;;;12.33;60.11;99605.34;6769186;29;20220;-79
2022/01/01 17:18:28;;;;;;;12.13;8.10;;;;;;;12.94;59.55;99630.72;6768609;29;20211;-81
2022/01/01 17:21:54;;;;;;;12.93;8.87;;;;;;;12.34;59.11;99501.53;6768369;29;20224;-81
2022/01/01 17:25:23;;;;;;;10.90;8.17;;;;;;;12.97;59.13;99622.22;6767455;29;20195;-82
2022/01/01 17:28:47;;;;;;;9.47;7.57;;;;;;;13.13;58.36;99590.25;6767894;29;20203;-84
2022/01/01 17:32:09;;;;;;;9.87;7.63;;;;;;;13.16;58.22;99602.53;6771237;29;20235;-82
2022/01/01 17:35:39;;;;;;;10.93;7.63;;;;;;;13.24;57.18;99613.19;6768370;29;20668;-82
2022/01/01 17:42:42;;;;;;;25.20;18.90;;;;;;;12.43;59.44;99613.97;6769156;29;20231;-82
2022/01/01 17:46:04;;;;;;;27.03;20.57;;;;;;;12.62;59.48;99609.72;6769678;29;20275;-82
2022/01/01 17:49:30;;;;;;;19.57;14.77;;;;;;;12.61;59.07;99589.09;6769348;29;20625;-82
2022/01/01 17:52:59;;;;;;;17.33;8.80;;;;;;;12.31;59.83;99622.78;6768168;29;20240;-82
2022/01/01 17:56:21;;;;;;;10.63;7.10;;;;;;;12.75;58.76;99612.50;6768384;29;20219;-82
2022/01/01 17:59:44;;;;;;;10.70;7.27;;;;;;;12.61;59.00;99619.69;6769512;29;20235;-81
2022/01/01 18:03:07;;;;;;;9.67;7.13;;;;;;;12.79;58.22;99613.75;6766973;29;20811;-81
2022/01/01 18:06:29;;;;;;;7.80;6.83;;;;;;;12.72;57.66;99596.66;6771853;29;20252;-81
2022/01/01 18:10:00;;;;;;;8.27;6.63;;;;;;;12.81;56.80;99600.88;6774758;29;20569;-81
2022/01/01 18:13:28;;;;;;;9.10;6.73;;;;;;;12.51;57.62;99610.28;6767123;29;20240;-82
2022/01/01 18:16:50;;;;;;;13.23;8.97;;;;;;;11.63;59.00;99572.09;6765471;29;20214;-82
2022/01/01 18:20:14;;;;;;;11.53;7.90;;;;;;;12.10;59.21;99614.75;6765830;29;20227;-82
2022/01/01 18:23:36;;;;;;;19.13;11.30;;;;;;;11.76;60.10;99612.75;6766724;29;20238;-81
2022/01/01 18:27:04;;;;;;;13.87;9.20;;;;;;;12.23;59.37;99615.66;6766014;29;20211;-82
2022/01/01 18:30:26;;;;;;;10.90;7.93;;;;;;;12.26;58.89;99622.53;6766441;29;20207;-82
2022/01/01 18:33:48;;;;;;;11.43;8.80;;;;;;;12.04;58.13;99602.81;6766106;29;20239;-81
2022/01/01 18:37:11;;;;;;;13.37;9.40;;;;;;;11.28;60.13;99602.63;6765041;29;20214;-82
2022/01/01 18:40:32;;;;;;;8.90;7.57;;;;;;;11.61;59.69;99597.63;6764852;29;20250;-82
2022/01/01 18:43:55;;;;;;;8.60;7.27;;;;;;;11.71;59.30;99607.09;6764818;29;20234;-82
2022/01/01 18:47:18;;;;;;;10.87;7.53;;;;;;;11.07;59.51;99550.47;6762826;29;20214;-81
2022/01/01 18:50:48;;;;;;;11.00;8.23;;;;;;;11.43;59.76;99587.25;6765732;29;20306;-82
2022/01/01 18:54:13;;;;;;;10.43;7.60;;;;;;;10.94;61.20;99563.81;6765259;29;20350;-81
2022/01/01 18:57:36;;;;;;;12.83;8.20;;;;;;;11.41;61.09;99572.25;6765590;29;20207;-82
2022/01/01 19:01:00;;;;;;;11.17;7.57;;;;;;;11.06;63.13;99592.84;6765758;29;20245;-82
2022/01/01 19:04:22;;;;;;;9.20;7.57;;;;;;;11.67;61.38;99577.94;6764431;29;20245;-81
2022/01/01 19:07:46;;;;;;;13.30;8.33;;;;;;;11.46;60.46;99584.16;6767073;29;20606;-81
2022/01/01 19:11:09;;;;;;;11.43;8.20;;;;;;;10.81;61.63;99523.22;6763657;29;20262;-82
2022/01/01 19:14:32;;;;;;;14.80;9.67;;;;;;;11.34;62.41;99593.78;6766494;29;20670;-80
2022/01/01 19:18:00;;;;;;;14.93;10.57;;;;;;;11.51;61.45;99578.19;6770268;29;20225;-81
2022/01/01 19:21:23;;;;;;;11.67;8.53;;;;;;;11.53;60.64;99582.38;6770171;29;20223;-81
2022/01/01 19:24:45;;;;;;;10.77;8.70;;;;;;;11.56;60.61;99598.19;6766464;29;20237;-81
2022/01/01 19:28:08;;;;;;;10.77;7.63;;;;;;;11.73;59.87;99596.09;6765808;29;20218;-82
2022/01/01 19:31:30;;;;;;;9.93;8.37;;;;;;;11.24;60.34;99581.63;6743312;29;20303;-82
2022/01/01 19:34:54;;;;;;;19.43;9.77;;;;;;;11.32;60.17;99597.69;6786055;29;20244;-81
2022/01/01 19:38:16;;;;;;;12.97;9.37;;;;;;;11.32;60.70;99579.63;6755824;29;20227;-81
2022/01/01 19:41:41;;;;;;;14.93;10.70;;;;;;;11.45;59.99;99587.06;6772760;29;20232;-81
2022/01/01 19:45:05;;;;;;;13.63;8.10;;;;;;;11.33;59.71;99575.09;6772823;29;20210;-81
2022/01/01 19:48:29;;;;;;;9.93;6.70;;;;;;;11.48;59.55;99562.34;6767964;29;20241;-81
2022/01/01 19:51:52;;;;;;;13.47;9.97;;;;;;;11.06;60.07;99557.75;6765995;29;20225;-82
2022/01/01 19:55:14;;;;;;;13.37;9.93;;;;;;;10.86;61.24;99559.38;6765320;29;20211;-81
2022/01/01 19:58:36;;;;;;;14.53;10.33;;;;;;;10.14;63.73;99556.69;6766010;29;20218;-82
2022/01/01 20:01:58;;;;;;;12.27;9.33;;;;;;;10.92;62.71;99566.69;6765628;29;20241;-81
2022/01/01 20:05:23;;;;;;;12.47;9.57;;;;;;;11.29;61.50;99554.91;6778732;29;20206;-81
2022/01/01 20:08:46;;;;;;;12.67;8.60;;;;;;;11.60;59.71;99542.78;6747160;29;20209;-81
2022/01/01 20:12:08;;;;;;;14.67;8.77;;;;;;;10.51;61.02;99545.84;6765541;29;20742;-81
2022/01/01 20:15:30;;;;;;;14.37;8.93;;;;;;;10.41;62.36;99542.59;6764777;29;20218;-80
2022/01/01 20:18:52;;;;;;;19.37;11.83;;;;;;;10.70;62.20;99540.69;6765832;29;20219;-81
2022/01/01 20:22:15;;;;;;;18.23;10.37;;;;;;;10.88;62.08;99540.31;6765711;29;20239;-81
2022/01/01 20:25:38;;;;;;;15.10;10.07;;;;;;;10.87;63.38;99534.06;6764639;29;20298;-81
2022/01/01 20:29:00;;;;;;;15.27;10.30;;;;;;;10.90;62.35;99520.22;6765605;29;20805;-81